sensor_id;sensor_type;location;lat;lon;timestamp;pressure;altitude;pressure_sealevel;temperature;humidity
74798;BME280;63326;45.088;7.658;2022-12-29T00:01:47;99465.44;;;1.79;84.57
74798;BME280;63326;45.088;7.658;2022-12-29T00:04:14;99441.44;;;1.69;84.69
74798;BME280;63326;45.088;7.658;2022-12-29T00:06:42;99499.25;;;2.12;84.70
74798;BME280;63326;45.088;7.658;2022-12-29T00:09:13;99500.53;;;2.07;84.10
74798;BME280;63326;45.088;7.658;2022-12-29T00:11:40;99478.00;;;1.88;85.20
74798;BME280;63326;45.088;7.658;2022-12-29T00:14:09;99506.84;;;2.04;85.24
74798;BME280;63326;45.088;7.658;2022-12-29T00:16:54;99426.31;;;1.59;85.45
74798;BME280;63326;45.088;7.658;2022-12-29T00:19:21;99478.31;;;1.96;85.35
74798;BME280;63326;45.088;7.658;2022-12-29T00:22:10;99385.31;;;1.40;85.05
74798;BME280;63326;45.088;7.658;2022-12-29T00:24:55;99450.75;;;1.75;84.86
74798;BME280;63326;45.088;7.658;2022-12-29T00:27:40;99409.31;;;1.50;84.56
74798;BME280;63326;45.088;7.658;2022-12-29T00:30:33;99467.22;;;1.91;84.70
74798;BME280;63326;45.088;7.658;2022-12-29T00:33:20;99491.75;;;2.06;84.40
74798;BME280;63326;45.088;7.658;2022-12-29T00:36:18;99490.72;;;1.96;84.56
74798;BME280;63326;45.088;7.658;2022-12-29T00:38:59;99430.03;;;1.56;84.75
74798;BME280;63326;45.088;7.658;2022-12-29T00:41:45;99434.56;;;1.67;84.89
74798;BME280;63326;45.088;7.658;2022-12-29T00:44:30;99423.69;;;1.59;84.78
74798;BME280;63326;45.088;7.658;2022-12-29T00:46:57;99411.31;;;1.47;85.01
74798;BME280;63326;45.088;7.658;2022-12-29T00:49:24;99476.84;;;1.80;85.45
74798;BME280;63326;45.088;7.658;2022-12-29T00:54:24;99467.34;;;1.77;85.00
74798;BME280;63326;45.088;7.658;2022-12-29T00:56:52;99487.84;;;1.86;85.12
74798;BME280;63326;45.088;7.658;2022-12-29T00:59:19;99480.13;;;1.83;84.58
74798;BME280;63326;45.088;7.658;2022-12-29T01:01:47;99491.34;;;1.74;85.19
74798;BME280;63326;45.088;7.658;2022-12-29T01:04:14;99405.41;;;1.18;84.92
74798;BME280;63326;45.088;7.658;2022-12-29T01:06:40;99408.16;;;1.16;85.24
74798;BME280;63326;45.088;7.658;2022-12-29T01:09:08;99406.75;;;1.10;85.22
74798;BME280;63326;45.088;7.658;2022-12-29T01:11:54;99457.59;;;1.39;85.07
74798;BME280;63326;45.088;7.658;2022-12-29T01:14:22;99489.00;;;1.69;85.65
74798;BME280;63326;45.088;7.658;2022-12-29T01:16:49;99407.94;;;1.19;85.21
74798;BME280;63326;45.088;7.658;2022-12-29T01:19:16;99446.81;;;1.42;85.24
74798;BME280;63326;45.088;7.658;2022-12-29T01:21:44;99454.22;;;1.50;84.61
74798;BME280;63326;45.088;7.658;2022-12-29T01:24:12;99460.25;;;1.52;84.69
74798;BME280;63326;45.088;7.658;2022-12-29T01:26:38;99444.00;;;1.46;84.87
74798;BME280;63326;45.088;7.658;2022-12-29T01:29:05;99450.34;;;1.56;85.38
74798;BME280;63326;45.088;7.658;2022-12-29T01:31:32;99476.63;;;1.70;85.21
74798;BME280;63326;45.088;7.658;2022-12-29T01:33:59;99416.63;;;1.34;84.63
74798;BME280;63326;45.088;7.658;2022-12-29T01:36:26;99421.25;;;1.30;84.53
74798;BME280;63326;45.088;7.658;2022-12-29T01:38:52;99468.19;;;1.52;84.53
74798;BME280;63326;45.088;7.658;2022-12-29T01:41:19;99441.75;;;1.39;84.25
74798;BME280;63326;45.088;7.658;2022-12-29T01:43:52;99434.88;;;1.24;84.35
74798;BME280;63326;45.088;7.658;2022-12-29T01:48:48;99467.88;;;1.44;84.40
74798;BME280;63326;45.088;7.658;2022-12-29T01:51:16;99477.78;;;1.40;84.17
74798;BME280;63326;45.088;7.658;2022-12-29T01:53:44;99467.84;;;1.31;84.25
74798;BME280;63326;45.088;7.658;2022-12-29T01:56:13;99518.72;;;1.60;84.16
74798;BME280;63326;45.088;7.658;2022-12-29T01:58:46;99488.16;;;1.43;84.31
74798;BME280;63326;45.088;7.658;2022-12-29T02:01:17;99476.53;;;1.33;83.84
74798;BME280;63326;45.088;7.658;2022-12-29T02:03:46;99467.94;;;1.30;84.25
74798;BME280;63326;45.088;7.658;2022-12-29T02:06:23;99447.97;;;1.13;83.91
74798;BME280;63326;45.088;7.658;2022-12-29T02:08:55;99502.31;;;1.42;83.64
74798;BME280;63326;45.088;7.658;2022-12-29T02:11:25;99484.75;;;1.29;83.99
74798;BME280;63326;45.088;7.658;2022-12-29T02:13:53;99489.94;;;1.30;83.89
74798;BME280;63326;45.088;7.658;2022-12-29T02:16:26;99503.59;;;1.37;83.81
74798;BME280;63326;45.088;7.658;2022-12-29T02:33:37;99479.69;;;1.38;83.45
74798;BME280;63326;45.088;7.658;2022-12-29T02:42:14;99429.78;;;1.21;84.05
74798;BME280;63326;45.088;7.658;2022-12-29T02:47:47;99452.31;;;1.39;83.98
74798;BME280;63326;45.088;7.658;2022-12-29T02:50:22;99405.91;;;1.10;83.47
74798;BME280;63326;45.088;7.658;2022-12-29T02:52:54;99462.03;;;1.39;84.02
74798;BME280;63326;45.088;7.658;2022-12-29T02:55:21;99441.44;;;1.31;83.49
74798;BME280;63326;45.088;7.658;2022-12-29T02:57:49;99433.28;;;1.22;83.28
74798;BME280;63326;45.088;7.658;2022-12-29T03:00:31;99395.22;;;0.99;82.87
74798;BME280;63326;45.088;7.658;2022-12-29T03:03:14;99452.63;;;1.22;83.82
74798;BME280;63326;45.088;7.658;2022-12-29T03:06:16;99408.75;;;0.94;83.96
74798;BME280;63326;45.088;7.658;2022-12-29T03:18:01;99440.56;;;1.05;83.89
74798;BME280;63326;45.088;7.658;2022-12-29T03:20:42;99405.78;;;0.86;83.66
74798;BME280;63326;45.088;7.658;2022-12-29T03:23:12;99439.72;;;1.05;83.81
74798;BME280;63326;45.088;7.658;2022-12-29T03:25:44;99423.84;;;0.92;83.94
74798;BME280;63326;45.088;7.658;2022-12-29T03:28:18;99392.31;;;0.64;83.74
74798;BME280;63326;45.088;7.658;2022-12-29T03:30:47;99323.63;;;0.25;84.38
74798;BME280;63326;45.088;7.658;2022-12-29T03:33:22;99430.59;;;0.83;84.41
74798;BME280;63326;45.088;7.658;2022-12-29T03:35:53;99337.97;;;0.21;85.25
74798;BME280;63326;45.088;7.658;2022-12-29T03:40:56;99368.09;;;0.44;84.96
74798;BME280;63326;45.088;7.658;2022-12-29T03:43:27;99395.34;;;0.57;85.05
74798;BME280;63326;45.088;7.658;2022-12-29T03:45:54;99434.19;;;0.82;85.08
74798;BME280;63326;45.088;7.658;2022-12-29T03:48:21;99426.44;;;0.79;85.30
74798;BME280;63326;45.088;7.658;2022-12-29T03:50:49;99397.84;;;0.73;85.32
74798;BME280;63326;45.088;7.658;2022-12-29T03:53:17;99399.06;;;0.68;85.41
74798;BME280;63326;45.088;7.658;2022-12-29T03:55:44;99395.16;;;0.61;85.05
74798;BME280;63326;45.088;7.658;2022-12-29T03:58:11;99371.47;;;0.46;84.49
74798;BME280;63326;45.088;7.658;2022-12-29T04:00:54;99374.75;;;0.50;84.54
74798;BME280;63326;45.088;7.658;2022-12-29T04:03:21;99372.31;;;0.47;84.21
74798;BME280;63326;45.088;7.658;2022-12-29T04:05:49;99391.97;;;0.55;83.83
74798;BME280;63326;45.088;7.658;2022-12-29T04:08:16;99400.25;;;0.64;83.65
74798;BME280;63326;45.088;7.658;2022-12-29T04:10:43;99395.47;;;0.56;84.23
74798;BME280;63326;45.088;7.658;2022-12-29T04:13:12;99403.28;;;0.57;84.44
74798;BME280;63326;45.088;7.658;2022-12-29T04:15:39;99366.53;;;0.42;84.80
74798;BME280;63326;45.088;7.658;2022-12-29T04:18:06;99377.50;;;0.48;84.67
74798;BME280;63326;45.088;7.658;2022-12-29T04:20:33;99355.97;;;0.42;84.39
74798;BME280;63326;45.088;7.658;2022-12-29T04:23:18;99394.75;;;0.67;84.53
74798;BME280;63326;45.088;7.658;2022-12-29T04:25:46;99419.09;;;0.84;84.07
74798;BME280;63326;45.088;7.658;2022-12-29T04:28:16;99332.72;;;0.34;84.26
74798;BME280;63326;45.088;7.658;2022-12-29T04:30:53;99355.44;;;0.49;83.33
74798;BME280;63326;45.088;7.658;2022-12-29T04:33:23;99418.34;;;0.82;83.96
74798;BME280;63326;45.088;7.658;2022-12-29T04:35:52;99422.97;;;0.92;83.41
74798;BME280;63326;45.088;7.658;2022-12-29T04:38:40;99381.44;;;0.68;83.88
74798;BME280;63326;45.088;7.658;2022-12-29T04:41:08;99426.56;;;0.91;83.79
74798;BME280;63326;45.088;7.658;2022-12-29T04:43:37;99376.91;;;0.70;83.39
74798;BME280;63326;45.088;7.658;2022-12-29T04:46:22;99415.84;;;0.94;82.91
74798;BME280;63326;45.088;7.658;2022-12-29T04:48:55;99407.06;;;0.93;83.12
74798;BME280;63326;45.088;7.658;2022-12-29T04:51:46;99355.16;;;0.54;82.99
74798;BME280;63326;45.088;7.658;2022-12-29T04:54:14;99399.94;;;0.81;82.96
74798;BME280;63326;45.088;7.658;2022-12-29T04:56:44;99379.03;;;0.65;83.27
74798;BME280;63326;45.088;7.658;2022-12-29T04:59:14;99402.59;;;0.81;83.59
74798;BME280;63326;45.088;7.658;2022-12-29T05:01:44;99391.16;;;0.68;83.39
74798;BME280;63326;45.088;7.658;2022-12-29T05:04:11;99386.84;;;0.67;84.01
74798;BME280;63326;45.088;7.658;2022-12-29T05:06:37;99404.06;;;0.72;83.31
74798;BME280;63326;45.088;7.658;2022-12-29T05:09:04;99392.44;;;0.62;83.59
74798;BME280;63326;45.088;7.658;2022-12-29T05:11:31;99401.28;;;0.61;84.08
74798;BME280;63326;45.088;7.658;2022-12-29T05:13:59;99381.06;;;0.47;83.87
74798;BME280;63326;45.088;7.658;2022-12-29T05:16:26;99403.91;;;0.61;84.65
74798;BME280;63326;45.088;7.658;2022-12-29T05:18:53;99397.25;;;0.55;84.54
74798;BME280;63326;45.088;7.658;2022-12-29T05:21:20;99381.72;;;0.51;84.55
74798;BME280;63326;45.088;7.658;2022-12-29T05:23:48;99383.72;;;0.47;84.64
74798;BME280;63326;45.088;7.658;2022-12-29T05:26:15;99383.81;;;0.46;84.26
74798;BME280;63326;45.088;7.658;2022-12-29T05:28:53;99426.31;;;0.68;85.15
74798;BME280;63326;45.088;7.658;2022-12-29T05:31:21;99353.16;;;0.31;84.35
74798;BME280;63326;45.088;7.658;2022-12-29T05:33:48;99414.38;;;0.63;84.21
74798;BME280;63326;45.088;7.658;2022-12-29T05:36:14;99419.13;;;0.70;84.60
74798;BME280;63326;45.088;7.658;2022-12-29T05:38:46;99414.19;;;0.66;84.14
74798;BME280;63326;45.088;7.658;2022-12-29T05:41:13;99330.22;;;0.18;84.02
74798;BME280;63326;45.088;7.658;2022-12-29T05:43:48;99336.19;;;0.22;83.89
74798;BME280;63326;45.088;7.658;2022-12-29T05:46:34;99374.69;;;0.51;83.86
74798;BME280;63326;45.088;7.658;2022-12-29T05:49:17;99353.63;;;0.37;83.89
74798;BME280;63326;45.088;7.658;2022-12-29T05:52:06;99346.19;;;0.29;83.96
74798;BME280;63326;45.088;7.658;2022-12-29T05:54:33;99356.75;;;0.29;83.69
74798;BME280;63326;45.088;7.658;2022-12-29T05:57:02;99302.47;;;0.00;84.30
74798;BME280;63326;45.088;7.658;2022-12-29T05:59:32;99349.16;;;0.25;84.28
74798;BME280;63326;45.088;7.658;2022-12-29T06:02:00;99385.63;;;0.45;83.62
74798;BME280;63326;45.088;7.658;2022-12-29T06:04:27;99413.09;;;0.55;84.05
74798;BME280;63326;45.088;7.658;2022-12-29T06:06:54;99377.97;;;0.41;83.99
74798;BME280;63326;45.088;7.658;2022-12-29T06:09:29;99379.41;;;0.46;83.11
74798;BME280;63326;45.088;7.658;2022-12-29T06:11:55;99405.63;;;0.62;82.75
74798;BME280;63326;45.088;7.658;2022-12-29T06:14:22;99429.94;;;0.80;82.90
74798;BME280;63326;45.088;7.658;2022-12-29T06:16:49;99429.94;;;0.80;82.41
74798;BME280;63326;45.088;7.658;2022-12-29T06:19:16;99405.19;;;0.68;82.37
74798;BME280;63326;45.088;7.658;2022-12-29T06:21:43;99332.13;;;0.16;83.01
74798;BME280;63326;45.088;7.658;2022-12-29T06:24:10;99346.78;;;0.20;83.07
74798;BME280;63326;45.088;7.658;2022-12-29T06:26:37;99403.84;;;0.63;83.77
74798;BME280;63326;45.088;7.658;2022-12-29T06:29:05;99444.81;;;0.81;84.01
74798;BME280;63326;45.088;7.658;2022-12-29T06:31:33;99434.59;;;0.76;84.41
74798;BME280;63326;45.088;7.658;2022-12-29T06:34:00;99437.13;;;0.78;84.71
74798;BME280;63326;45.088;7.658;2022-12-29T06:36:33;99410.44;;;0.55;83.77
74798;BME280;63326;45.088;7.658;2022-12-29T06:39:00;99400.00;;;0.54;83.81
74798;BME280;63326;45.088;7.658;2022-12-29T06:41:27;99405.06;;;0.57;83.74
74798;BME280;63326;45.088;7.658;2022-12-29T06:44:18;99358.28;;;0.19;83.12
74798;BME280;63326;45.088;7.658;2022-12-29T06:46:55;99437.19;;;0.64;83.77
74798;BME280;63326;45.088;7.658;2022-12-29T06:49:23;99424.28;;;0.59;83.44
74798;BME280;63326;45.088;7.658;2022-12-29T06:51:50;99420.75;;;0.46;83.59
74798;BME280;63326;45.088;7.658;2022-12-29T06:54:17;99356.66;;;0.04;83.50
74798;BME280;63326;45.088;7.658;2022-12-29T06:56:43;99414.53;;;0.47;83.92
74798;BME280;63326;45.088;7.658;2022-12-29T06:59:10;99396.31;;;0.29;83.77
74798;BME280;63326;45.088;7.658;2022-12-29T07:01:37;99428.56;;;0.47;83.57
74798;BME280;63326;45.088;7.658;2022-12-29T07:04:04;99390.50;;;0.24;84.31
74798;BME280;63326;45.088;7.658;2022-12-29T07:06:30;99412.84;;;0.46;84.44
74798;BME280;63326;45.088;7.658;2022-12-29T07:08:57;99430.94;;;0.52;83.91
74798;BME280;63326;45.088;7.658;2022-12-29T07:11:24;99419.22;;;0.56;84.76
74798;BME280;63326;45.088;7.658;2022-12-29T07:13:50;99423.56;;;0.70;83.88
74798;BME280;63326;45.088;7.658;2022-12-29T07:16:17;99393.03;;;0.53;83.58
74798;BME280;63326;45.088;7.658;2022-12-29T07:18:44;99369.34;;;0.39;83.90
74798;BME280;63326;45.088;7.658;2022-12-29T07:21:11;99438.69;;;0.80;83.81
74798;BME280;63326;45.088;7.658;2022-12-29T07:23:38;99402.16;;;0.62;83.73
74798;BME280;63326;45.088;7.658;2022-12-29T07:26:07;99440.09;;;0.86;83.79
74798;BME280;63326;45.088;7.658;2022-12-29T07:28:37;99375.59;;;0.50;84.23
74798;BME280;63326;45.088;7.658;2022-12-29T07:31:12;99401.44;;;0.72;84.04
74798;BME280;63326;45.088;7.658;2022-12-29T07:33:40;99434.94;;;0.97;83.03
74798;BME280;63326;45.088;7.658;2022-12-29T07:36:07;99453.03;;;1.16;83.46
74798;BME280;63326;45.088;7.658;2022-12-29T07:38:33;99404.72;;;0.89;83.63
74798;BME280;63326;45.088;7.658;2022-12-29T07:41:00;99369.94;;;0.69;81.97
74798;BME280;63326;45.088;7.658;2022-12-29T07:43:27;99453.38;;;1.24;82.23
74798;BME280;63326;45.088;7.658;2022-12-29T07:46:12;99439.84;;;1.29;81.89
74798;BME280;63326;45.088;7.658;2022-12-29T07:49:01;99413.75;;;1.24;81.31
74798;BME280;63326;45.088;7.658;2022-12-29T07:51:27;99404.66;;;1.28;81.01
74798;BME280;63326;45.088;7.658;2022-12-29T07:53:54;99393.38;;;1.26;80.79
74798;BME280;63326;45.088;7.658;2022-12-29T07:56:21;99458.56;;;1.77;80.89
74798;BME280;63326;45.088;7.658;2022-12-29T07:58:47;99452.84;;;1.83;80.06
74798;BME280;63326;45.088;7.658;2022-12-29T08:01:14;99385.72;;;1.60;79.74
74798;BME280;63326;45.088;7.658;2022-12-29T08:03:41;99402.94;;;1.78;79.88
74798;BME280;63326;45.088;7.658;2022-12-29T08:06:11;99384.00;;;1.84;80.38
74798;BME280;63326;45.088;7.658;2022-12-29T08:08:38;99413.53;;;2.15;80.14
74798;BME280;63326;45.088;7.658;2022-12-29T08:11:05;99410.03;;;2.14;77.95
74798;BME280;63326;45.088;7.658;2022-12-29T08:13:32;99419.94;;;2.36;78.48
74798;BME280;63326;45.088;7.658;2022-12-29T08:15:59;99402.19;;;2.25;77.48
74798;BME280;63326;45.088;7.658;2022-12-29T08:18:26;99457.75;;;2.73;78.46
74798;BME280;63326;45.088;7.658;2022-12-29T08:20:52;99363.91;;;2.18;77.51
74798;BME280;63326;45.088;7.658;2022-12-29T08:23:21;99427.19;;;2.69;77.44
74798;BME280;63326;45.088;7.658;2022-12-29T08:25:57;99397.53;;;2.64;77.16
74798;BME280;63326;45.088;7.658;2022-12-29T08:28:24;99442.47;;;3.01;77.65
74798;BME280;63326;45.088;7.658;2022-12-29T08:30:50;99409.69;;;2.91;76.41
74798;BME280;63326;45.088;7.658;2022-12-29T08:33:17;99407.78;;;2.93;76.51
74798;BME280;63326;45.088;7.658;2022-12-29T08:35:44;99467.53;;;3.43;76.03
74798;BME280;63326;45.088;7.658;2022-12-29T08:38:11;99450.66;;;3.44;75.77
74798;BME280;63326;45.088;7.658;2022-12-29T08:40:38;99436.44;;;3.45;76.60
74798;BME280;63326;45.088;7.658;2022-12-29T08:43:04;99447.56;;;3.61;76.57
74798;BME280;63326;45.088;7.658;2022-12-29T08:45:31;99439.09;;;3.56;76.02
74798;BME280;63326;45.088;7.658;2022-12-29T08:47:58;99412.38;;;3.48;76.16
74798;BME280;63326;45.088;7.658;2022-12-29T08:50:25;99392.97;;;3.47;75.35
74798;BME280;63326;45.088;7.658;2022-12-29T08:52:51;99401.16;;;3.56;75.03
74798;BME280;63326;45.088;7.658;2022-12-29T08:55:18;99451.69;;;3.99;75.32
74798;BME280;63326;45.088;7.658;2022-12-29T08:57:45;99446.59;;;3.96;74.90
74798;BME280;63326;45.088;7.658;2022-12-29T09:00:15;99446.59;;;4.07;75.67
74798;BME280;63326;45.088;7.658;2022-12-29T09:02:43;99450.88;;;4.53;74.19
74798;BME280;63326;45.088;7.658;2022-12-29T09:05:10;99404.38;;;4.58;72.63
74798;BME280;63326;45.088;7.658;2022-12-29T09:07:36;99443.75;;;5.38;72.63
74798;BME280;63326;45.088;7.658;2022-12-29T09:10:04;99448.88;;;5.30;71.68
74798;BME280;63326;45.088;7.658;2022-12-29T09:12:30;99435.34;;;5.33;72.60
74798;BME280;63326;45.088;7.658;2022-12-29T09:15:03;99406.16;;;5.01;71.40
74798;BME280;63326;45.088;7.658;2022-12-29T09:17:30;99425.75;;;4.89;71.93
74798;BME280;63326;45.088;7.658;2022-12-29T09:20:13;99450.56;;;4.78;73.09
74798;BME280;63326;45.088;7.658;2022-12-29T09:22:41;99461.56;;;4.74;75.32
74798;BME280;63326;45.088;7.658;2022-12-29T09:25:08;99439.75;;;4.59;74.39
74798;BME280;63326;45.088;7.658;2022-12-29T09:27:36;99377.59;;;4.07;74.62
74798;BME280;63326;45.088;7.658;2022-12-29T09:30:05;99417.28;;;4.31;74.48
74798;BME280;63326;45.088;7.658;2022-12-29T09:32:33;99425.47;;;4.17;75.68
74798;BME280;63326;45.088;7.658;2022-12-29T09:35:07;99410.78;;;4.01;76.63
74798;BME280;63326;45.088;7.658;2022-12-29T09:37:34;99417.78;;;4.02;77.08
74798;BME280;63326;45.088;7.658;2022-12-29T09:40:00;99432.34;;;4.08;77.46
74798;BME280;63326;45.088;7.658;2022-12-29T09:42:38;99471.44;;;4.40;76.42
74798;BME280;63326;45.088;7.658;2022-12-29T09:45:14;99424.19;;;4.11;77.01
74798;BME280;63326;45.088;7.658;2022-12-29T09:47:42;99467.69;;;4.42;77.17
74798;BME280;63326;45.088;7.658;2022-12-29T09:52:58;99476.38;;;4.44;77.04
74798;BME280;63326;45.088;7.658;2022-12-29T09:55:37;99463.59;;;4.27;77.56
74798;BME280;63326;45.088;7.658;2022-12-29T09:58:15;99413.31;;;4.03;77.46
74798;BME280;63326;45.088;7.658;2022-12-29T10:00:49;99472.88;;;4.44;77.55
74798;BME280;63326;45.088;7.658;2022-12-29T10:03:23;99474.31;;;4.48;76.94
74798;BME280;63326;45.088;7.658;2022-12-29T10:06:05;99405.72;;;3.98;77.20
74798;BME280;63326;45.088;7.658;2022-12-29T10:11:30;99469.72;;;4.50;77.41
74798;BME280;63326;45.088;7.658;2022-12-29T10:14:13;99390.16;;;4.05;77.59
74798;BME280;63326;45.088;7.658;2022-12-29T10:17:01;99405.72;;;4.21;77.96
74798;BME280;63326;45.088;7.658;2022-12-29T10:24:53;99454.53;;;4.84;76.60
74798;BME280;63326;45.088;7.658;2022-12-29T10:27:21;99369.81;;;4.38;76.62
74798;BME280;63326;45.088;7.658;2022-12-29T10:29:52;99429.88;;;4.93;76.15
74798;BME280;63326;45.088;7.658;2022-12-29T10:32:29;99444.44;;;4.99;75.76
74798;BME280;63326;45.088;7.658;2022-12-29T10:35:05;99389.50;;;4.67;75.09
74798;BME280;63326;45.088;7.658;2022-12-29T10:40:38;99425.34;;;5.05;75.24
74798;BME280;63326;45.088;7.658;2022-12-29T10:43:29;99416.31;;;5.17;74.79
74798;BME280;63326;45.088;7.658;2022-12-29T10:46:07;99417.78;;;5.42;75.02
74798;BME280;63326;45.088;7.658;2022-12-29T10:48:37;99412.72;;;5.69;74.16
74798;BME280;63326;45.088;7.658;2022-12-29T10:51:05;99385.94;;;5.92;72.67
74798;BME280;63326;45.088;7.658;2022-12-29T10:53:50;99408.94;;;6.52;71.37
74798;BME280;63326;45.088;7.658;2022-12-29T10:56:50;99401.53;;;7.04;69.15
74798;BME280;63326;45.088;7.658;2022-12-29T10:59:25;99400.97;;;7.20;66.34
74798;BME280;63326;45.088;7.658;2022-12-29T11:02:00;99395.75;;;7.38;62.86
74798;BME280;63326;45.088;7.658;2022-12-29T11:07:12;99376.84;;;7.68;63.22
74798;BME280;63326;45.088;7.658;2022-12-29T11:09:44;99372.69;;;7.84;62.59
74798;BME280;63326;45.088;7.658;2022-12-29T11:12:28;99379.63;;;8.31;60.56
74798;BME280;63326;45.088;7.658;2022-12-29T11:17:45;99366.63;;;8.64;60.54
74798;BME280;63326;45.088;7.658;2022-12-29T11:22:55;99349.44;;;8.84;58.17
74798;BME280;63326;45.088;7.658;2022-12-29T11:25:22;99347.31;;;9.14;59.43
74798;BME280;63326;45.088;7.658;2022-12-29T11:28:13;99312.00;;;8.84;57.89
74798;BME280;63326;45.088;7.658;2022-12-29T11:30:43;99335.03;;;8.59;58.50
74798;BME280;63326;45.088;7.658;2022-12-29T11:33:10;99346.22;;;8.63;58.73
74798;BME280;63326;45.088;7.658;2022-12-29T11:35:38;99368.69;;;8.70;59.34
74798;BME280;63326;45.088;7.658;2022-12-29T11:38:18;99312.28;;;8.99;59.14
74798;BME280;63326;45.088;7.658;2022-12-29T11:40:47;99288.94;;;8.83;57.55
74798;BME280;63326;45.088;7.658;2022-12-29T11:43:31;99350.66;;;9.34;57.65
74798;BME280;63326;45.088;7.658;2022-12-29T11:46:01;99344.50;;;9.15;57.50
74798;BME280;63326;45.088;7.658;2022-12-29T11:48:41;99347.00;;;8.73;58.33
74798;BME280;63326;45.088;7.658;2022-12-29T11:51:09;99353.78;;;8.68;59.68
74798;BME280;63326;45.088;7.658;2022-12-29T11:53:46;99348.66;;;8.74;59.45
74798;BME280;63326;45.088;7.658;2022-12-29T11:56:16;99347.22;;;8.80;60.43
74798;BME280;63326;45.088;7.658;2022-12-29T11:58:44;99288.75;;;8.59;59.76
74798;BME280;63326;45.088;7.658;2022-12-29T12:03:46;99286.91;;;8.59;58.72
74798;BME280;63326;45.088;7.658;2022-12-29T12:06:18;99264.53;;;8.43;58.26
74798;BME280;63326;45.088;7.658;2022-12-29T12:08:53;99302.63;;;8.45;59.20
74798;BME280;63326;45.088;7.658;2022-12-29T12:11:23;99325.31;;;8.58;58.23
74798;BME280;63326;45.088;7.658;2022-12-29T12:14:12;99325.41;;;8.49;60.07
74798;BME280;63326;45.088;7.658;2022-12-29T12:17:40;99315.31;;;8.60;58.70
74798;BME280;63326;45.088;7.658;2022-12-29T12:25:28;99294.06;;;9.55;55.75
74798;BME280;63326;45.088;7.658;2022-12-29T12:27:58;99299.50;;;9.79;55.46
74798;BME280;63326;45.088;7.658;2022-12-29T12:30:31;99269.59;;;9.92;55.00
74798;BME280;63326;45.088;7.658;2022-12-29T12:39:11;99277.13;;;12.75;46.40
74798;BME280;63326;45.088;7.658;2022-12-29T12:56:00;99258.88;;;16.07;39.22
74798;BME280;63326;45.088;7.658;2022-12-29T12:58:59;99266.34;;;16.80;38.34
74798;BME280;63326;45.088;7.658;2022-12-29T13:18:45;99224.47;;;16.89;37.02
74798;BME280;63326;45.088;7.658;2022-12-29T13:24:47;99219.31;;;17.65;36.37
74798;BME280;63326;45.088;7.658;2022-12-29T13:27:53;99213.75;;;18.05;34.76
74798;BME280;63326;45.088;7.658;2022-12-29T13:30:32;99128.63;;;17.54;34.44
74798;BME280;63326;45.088;7.658;2022-12-29T13:38:37;99194.34;;;18.71;33.83
74798;BME280;63326;45.088;7.658;2022-12-29T13:41:08;99161.88;;;19.19;32.51
74798;BME280;63326;45.088;7.658;2022-12-29T13:43:40;99109.84;;;17.98;33.62
74798;BME280;63326;45.088;7.658;2022-12-29T13:46:20;99182.66;;;18.70;33.36
74798;BME280;63326;45.088;7.658;2022-12-29T13:51:24;99148.41;;;17.68;34.39
74798;BME280;63326;45.088;7.658;2022-12-29T13:54:02;99190.31;;;17.72;34.76
74798;BME280;63326;45.088;7.658;2022-12-29T13:56:41;99198.59;;;16.27;37.78
74798;BME280;63326;45.088;7.658;2022-12-29T14:01:50;99169.47;;;16.49;36.82
74798;BME280;63326;45.088;7.658;2022-12-29T14:04:28;99194.50;;;17.62;34.64
74798;BME280;63326;45.088;7.658;2022-12-29T14:07:11;99204.56;;;17.48;34.77
74798;BME280;63326;45.088;7.658;2022-12-29T14:17:42;99198.03;;;14.80;43.58
74798;BME280;63326;45.088;7.658;2022-12-29T14:20:17;99207.16;;;13.93;46.57
74798;BME280;63326;45.088;7.658;2022-12-29T14:25:53;99211.34;;;13.30;48.64
74798;BME280;63326;45.088;7.658;2022-12-29T14:28:25;99206.53;;;12.73;49.62
74798;BME280;63326;45.088;7.658;2022-12-29T14:30:58;99211.75;;;12.89;48.96
74798;BME280;63326;45.088;7.658;2022-12-29T14:33:30;99194.53;;;12.61;49.13
74798;BME280;63326;45.088;7.658;2022-12-29T14:37:21;99216.56;;;12.56;49.82
74798;BME280;63326;45.088;7.658;2022-12-29T14:39:39;99229.47;;;11.53;52.51
74798;BME280;63326;45.088;7.658;2022-12-29T14:44:55;99224.66;;;10.77;54.30
74798;BME280;63326;45.088;7.658;2022-12-29T14:52:30;99190.16;;;10.25;55.14
74798;BME280;63326;45.088;7.658;2022-12-29T14:57:39;99213.94;;;10.44;55.44
74798;BME280;63326;45.088;7.658;2022-12-29T15:00:34;99169.53;;;10.42;54.90
74798;BME280;63326;45.088;7.658;2022-12-29T15:03:05;99242.16;;;11.28;53.31
74798;BME280;63326;45.088;7.658;2022-12-29T15:05:35;99238.16;;;12.25;50.27
74798;BME280;63326;45.088;7.658;2022-12-29T15:08:03;99204.69;;;12.05;49.54
74798;BME280;63326;45.088;7.658;2022-12-29T15:10:37;99173.00;;;12.61;46.94
74798;BME280;63326;45.088;7.658;2022-12-29T15:13:17;99154.50;;;12.43;46.70
74798;BME280;63326;45.088;7.658;2022-12-29T15:15:44;99156.47;;;11.89;48.22
74798;BME280;63326;45.088;7.658;2022-12-29T15:20:57;99230.75;;;11.26;48.50
74798;BME280;63326;45.088;7.658;2022-12-29T15:23:24;99230.19;;;10.83;50.28
74798;BME280;63326;45.088;7.658;2022-12-29T15:25:58;99231.69;;;10.70;50.95
74798;BME280;63326;45.088;7.658;2022-12-29T15:28:27;99171.03;;;10.03;51.37
74798;BME280;63326;45.088;7.658;2022-12-29T15:30:57;99208.38;;;10.13;52.08
74798;BME280;63326;45.088;7.658;2022-12-29T15:33:28;99199.13;;;9.99;53.01
74798;BME280;63326;45.088;7.658;2022-12-29T15:35:57;99205.16;;;9.93;52.83
74798;BME280;63326;45.088;7.658;2022-12-29T15:38:29;99104.03;;;9.04;54.00
74798;BME280;63326;45.088;7.658;2022-12-29T15:44:06;99227.84;;;9.22;57.17
74798;BME280;63326;45.088;7.658;2022-12-29T15:46:35;99192.56;;;8.93;56.81
74798;BME280;63326;45.088;7.658;2022-12-29T15:49:08;99218.47;;;8.92;58.00
74798;BME280;63326;45.088;7.658;2022-12-29T15:51:38;99229.50;;;8.89;58.64
74798;BME280;63326;45.088;7.658;2022-12-29T15:54:14;99225.34;;;8.69;59.63
74798;BME280;63326;45.088;7.658;2022-12-29T15:56:42;99136.78;;;8.02;60.40
74798;BME280;63326;45.088;7.658;2022-12-29T15:59:30;99155.94;;;7.98;60.89
74798;BME280;63326;45.088;7.658;2022-12-29T16:01:59;99188.28;;;8.13;61.85
74798;BME280;63326;45.088;7.658;2022-12-29T16:04:32;99233.34;;;8.33;61.17
74798;BME280;63326;45.088;7.658;2022-12-29T16:07:30;99228.78;;;8.26;61.82